Main page
METAR-TAF:

METAR-TAF

Airports :

Flugplatz Grafenwöhr

Grafenwöhr, Germany

latitude: 49-42N, longitude: 011-57E, elevation: 415 m

Current weather observation

The report was made 27 minutes ago, at 02:56 UTC
Calm wind
Temperature 13°C
Humidity 94%
Pressure 1019 hPa
Visibility 10 km or more
Scattered clouds at a height of 7000 ft

METAR: ETIC 200256Z AUTO 00000KT 9999 SCT070 13/12 A3008 RMK AO2 SLP173 T01340116 57005 TSNO $

Time: 05:23 (03:23 UTC)

Forecast

The report was made 5 hours and 19 minutes ago, at 22:04 UTC
Forecast valid from 19 at 22 UTC to 21 at 04 UTC
Wind 6 kt from variable directions
Visibility 10 km or more
Few clouds at a height of 7000 ft
Becoming
from 20 at 07 UTC to 20 at 08 UTC
Wind 9 kt from the West
Visibility 10 km or more
Few clouds at a height of 7000 ft

TAF: ETIC 192204Z 1922/2104 VRB06KT 9999 FEW070 QNH3011INS BECMG 2007/2008 27009KT 9999 FEW070 QNH3007INS TX29/2014Z TN14/2004Z

Weather observations and forecasts of more than 4000 airports (METAR and TAF reports).

The available stations are represented by yellow and red dots on the map.

Hover mouse over dot to see the name of the station.

Then click to see weather observations and forecasts.

To change the map : click on the green buttons with a black cross to zoom in, on the green button with a dash to zoom out, or on the green arrows for adjacent maps.


METAR-TAF: